Weather at Athen Helenikon Airport [CLOSED]

Public forecast

Using degrees Celsius for public forecast. Weather courtesy of forecast.io.

Closest aviation weather report (METAR) to Athen Helenikon Airport

Closest report is Eleftherios Venizelos International Airport, 10.5 nm (19.4 km) ENE. Retrieved 2021/08/04 14:20 UTC (31 minutes ago):

LGAV 041420Z 08005KT 050V110 CAVOK 38/08 Q1013 NOSIG

Closest aviation forecast (TAF) to Athen Helenikon Airport

Closest forecast is Eleftherios Venizelos International Airport, 10.5 nm (19.4 km) ENE. Retrieved 2021/08/04 12:12 UTC (3 hours ago):

TAF TAF LGAV 041100Z 0412/0512 VRB05KT CAVOK TEMPO 0412/0416 06010KT